Current | Forecast
Updated: 8:00 AM JST on October 21, 2017
Observed at Oshima Airport, Japan
Temperature 64°F
Humidity 94%
Dew Point 63°F
Wind NE at 24 mph
Pressure 29.98 in (Steady)
Conditions Light Rain
Visibility 4.3 miles
UV 1 out of 16
Clouds (FEW) : 500 ft
Mostly Cloudy (BKN) : 700 ft
Mostly Cloudy (BKN) : 900 ft
Yesterday's Maximum 64°F
Yesterday's Minimum 59°F approx.
Yesterday's Heating Degree Days 3 approx.
Sunrise5:55 AM JST
Sunset5:02 PM JST
Moon Rise6:55 AM JST
Moon Set6:11 PM JST
Moon PhaseMoon Phase
New Moon
Raw METARMETAR RJTO 202300Z 04021KT 7000 -RA FEW005 BKN007 BKN009 18/17 Q1015


Monday
. High: 77° F.
Tuesday
. High: 75° F.
Wednesday
. High: 69° F.
Thursday
. High: 77° F.
Friday
. High: 75° F.
Saturday
. High: 82° F.
Sunday
. High: 75° F.
Monday
. High: 77° F.

Units: English | Metric

Find the Weather for any City, State or Zipcode, or Country:

U.S. State List | Severe Weather | Tropical Storms | Ski Conditions
United States | Canada | Central America | South America | Asia | Europe | Australia | Africa | Islands

Weather Underground

© Copyright 2017
The Weather Company, LLC